createdAt,value
2017-11-12T00:00:32.006Z,1004.3
2017-11-12T00:01:33.672Z,1004.3
2017-11-12T00:02:35.295Z,1004.3
2017-11-12T00:03:36.906Z,1004.3
2017-11-12T00:04:38.535Z,1004.2
2017-11-12T00:05:40.233Z,1004.2
2017-11-12T00:06:41.859Z,1004.2
2017-11-12T00:07:43.577Z,1004.1
2017-11-12T00:08:45.211Z,1004.1
2017-11-12T00:09:46.910Z,1004.1
2017-11-12T00:10:48.530Z,1004.1
2017-11-12T00:11:50.199Z,1004.1
2017-11-12T00:12:51.821Z,1004.1
2017-11-12T00:13:53.490Z,1004.1
2017-11-12T00:14:55.080Z,1004.1
2017-11-12T00:15:56.751Z,1004.0
2017-11-12T00:16:58.409Z,1004.0
2017-11-12T00:18:00.022Z,1004.0
2017-11-12T00:19:01.685Z,1004.0
2017-11-12T00:20:03.325Z,1004.0
2017-11-12T00:21:05.009Z,1003.9
2017-11-12T00:22:06.680Z,1003.9
2017-11-12T00:23:08.291Z,1003.9
2017-11-12T00:24:09.935Z,1003.9
2017-11-12T00:25:11.572Z,1003.9
2017-11-12T00:26:13.190Z,1003.8
2017-11-12T00:27:14.810Z,1003.9
2017-11-12T00:28:16.423Z,1003.9
2017-11-12T00:29:18.083Z,1003.8
2017-11-12T00:30:19.705Z,1003.8
2017-11-12T00:31:21.317Z,1003.9
2017-11-12T00:32:22.966Z,1003.9
2017-11-12T00:33:24.593Z,1003.8
2017-11-12T00:34:26.219Z,1003.9
2017-11-12T00:35:27.928Z,1003.8
2017-11-12T00:36:29.544Z,1003.8
2017-11-12T00:37:31.158Z,1003.7
2017-11-12T00:38:32.781Z,1003.8
2017-11-12T00:39:34.393Z,1003.8
2017-11-12T00:40:36.053Z,1003.8
2017-11-12T00:41:37.667Z,1003.8
2017-11-12T00:42:39.332Z,1003.8
2017-11-12T00:43:40.958Z,1003.8
2017-11-12T00:44:42.626Z,1003.8
2017-11-12T00:45:44.287Z,1003.8
2017-11-12T00:46:45.930Z,1003.8
2017-11-12T00:47:47.595Z,1003.7
2017-11-12T00:48:49.265Z,1003.7
2017-11-12T00:49:50.895Z,1003.8
2017-11-12T00:50:52.503Z,1003.7
2017-11-12T00:51:54.187Z,1003.7
2017-11-12T00:52:55.846Z,1003.7
2017-11-12T00:53:57.491Z,1003.7
2017-11-12T00:54:59.107Z,1003.7
2017-11-12T00:56:00.720Z,1003.7
2017-11-12T00:57:02.332Z,1003.8
2017-11-12T00:58:03.954Z,1003.8
2017-11-12T00:59:05.677Z,1003.8
2017-11-12T01:00:07.276Z,1003.8
2017-11-12T01:01:08.888Z,1003.8
2017-11-12T01:02:10.508Z,1003.8
2017-11-12T01:03:12.148Z,1003.8
2017-11-12T01:04:13.847Z,1003.8
2017-11-12T01:05:15.462Z,1003.8
2017-11-12T01:06:17.075Z,1003.8
2017-11-12T01:07:18.687Z,1003.7
2017-11-12T01:08:20.302Z,1003.7
2017-11-12T01:09:21.952Z,1003.7
2017-11-12T01:10:23.567Z,1003.8
2017-11-12T01:11:25.293Z,1003.8
2017-11-12T01:12:26.992Z,1003.7
2017-11-12T01:13:28.684Z,1003.7
2017-11-12T01:14:30.352Z,1003.7
2017-11-12T01:15:31.979Z,1003.7
2017-11-12T01:16:33.660Z,1003.6
2017-11-12T01:17:35.340Z,1003.6
2017-11-12T01:18:37.019Z,1003.6
2017-11-12T01:19:38.651Z,1003.6
2017-11-12T01:20:40.277Z,1003.6
2017-11-12T01:21:41.970Z,1003.6
2017-11-12T01:22:43.579Z,1003.6
2017-11-12T01:23:45.191Z,1003.6
2017-11-12T01:24:46.823Z,1003.6
2017-11-12T01:25:48.440Z,1003.6
2017-11-12T01:26:50.116Z,1003.6
2017-11-12T01:27:51.808Z,1003.6
2017-11-12T01:28:53.525Z,1003.5
2017-11-12T01:29:55.185Z,1003.5
2017-11-12T01:30:56.874Z,1003.5
2017-11-12T01:31:58.486Z,1003.4
2017-11-12T01:33:00.207Z,1003.4
2017-11-12T01:34:01.818Z,1003.4
2017-11-12T01:35:03.482Z,1003.4
2017-11-12T01:36:05.149Z,1003.4
2017-11-12T01:37:06.764Z,1003.5
2017-11-12T01:38:08.484Z,1003.5
2017-11-12T01:39:10.101Z,1003.5
2017-11-12T01:40:11.772Z,1003.5
2017-11-12T01:41:13.393Z,1003.5
2017-11-12T01:42:14.994Z,1003.4
2017-11-12T01:43:16.692Z,1003.4
2017-11-12T01:44:18.366Z,1003.4
2017-11-12T01:45:19.982Z,1003.4
2017-11-12T01:46:21.711Z,1003.4
2017-11-12T01:47:23.397Z,1003.4
2017-11-12T01:48:25.010Z,1003.3
2017-11-12T01:49:26.617Z,1003.3
2017-11-12T01:50:28.238Z,1003.3
2017-11-12T01:51:29.949Z,1003.3
2017-11-12T01:52:31.610Z,1003.3
2017-11-12T01:53:33.323Z,1003.3
2017-11-12T01:54:34.937Z,1003.3
2017-11-12T01:55:36.546Z,1003.2
2017-11-12T01:56:38.158Z,1003.2
2017-11-12T01:57:39.770Z,1003.2
2017-11-12T01:58:41.401Z,1003.2
2017-11-12T01:59:43.055Z,1003.2
2017-11-12T02:00:44.692Z,1003.2
2017-11-12T02:01:46.385Z,1003.2
2017-11-12T02:02:48.090Z,1003.2
2017-11-12T02:03:49.796Z,1003.1
2017-11-12T02:04:51.514Z,1003.2
2017-11-12T02:05:53.227Z,1003.2
2017-11-12T02:06:54.837Z,1003.2
2017-11-12T02:07:56.533Z,1003.2
2017-11-12T02:08:58.149Z,1003.2
2017-11-12T02:09:59.764Z,1003.1
2017-11-12T02:11:01.374Z,1003.1
2017-11-12T02:12:03.020Z,1003.1
2017-11-12T02:13:04.638Z,1003.1
2017-11-12T02:14:06.248Z,1003.1
2017-11-12T02:15:07.883Z,1003.1
2017-11-12T02:16:09.488Z,1003.0
2017-11-12T02:17:11.104Z,1003.0
2017-11-12T02:18:12.768Z,1003.0
2017-11-12T02:19:14.382Z,1003.0
2017-11-12T02:20:15.998Z,1002.9
2017-11-12T02:21:17.607Z,1002.9
2017-11-12T02:22:19.295Z,1002.9
2017-11-12T02:23:20.968Z,1002.9
2017-11-12T02:24:22.641Z,1002.9
2017-11-12T02:25:24.259Z,1002.9
2017-11-12T02:26:25.870Z,1002.9
2017-11-12T02:27:27.487Z,1002.9
2017-11-12T02:28:29.124Z,1002.9
2017-11-12T02:29:30.750Z,1002.9
2017-11-12T02:30:32.376Z,1002.9
2017-11-12T02:31:33.974Z,1002.9
2017-11-12T02:32:35.639Z,1002.9
2017-11-12T02:33:37.345Z,1002.9
2017-11-12T02:34:39.059Z,1002.8
2017-11-12T02:35:40.704Z,1002.8
2017-11-12T02:36:42.322Z,1002.8
2017-11-12T02:37:43.966Z,1002.8
2017-11-12T02:38:45.597Z,1002.8
2017-11-12T02:39:47.306Z,1002.8
2017-11-12T02:40:48.974Z,1002.8
2017-11-12T02:41:50.599Z,1002.8
2017-11-12T02:42:52.214Z,1002.8
2017-11-12T02:43:53.931Z,1002.8
2017-11-12T02:44:55.645Z,1002.8
2017-11-12T02:45:57.341Z,1002.8
2017-11-12T02:46:58.957Z,1002.8
2017-11-12T02:48:00.566Z,1002.7
2017-11-12T02:49:02.178Z,1002.7
2017-11-12T02:50:03.833Z,1002.7
2017-11-12T02:51:05.462Z,1002.7
2017-11-12T02:52:07.131Z,1002.7
2017-11-12T02:53:08.803Z,1002.6
2017-11-12T02:54:10.461Z,1002.7
2017-11-12T02:55:12.096Z,1002.6
2017-11-12T02:56:13.781Z,1002.6
2017-11-12T02:57:15.464Z,1002.5
2017-11-12T02:58:17.118Z,1002.5
2017-11-12T02:59:18.784Z,1002.5
2017-11-12T03:00:20.406Z,1002.5
2017-11-12T03:01:22.080Z,1002.6
2017-11-12T03:02:23.768Z,1002.6
2017-11-12T03:03:25.372Z,1002.6
2017-11-12T03:04:26.981Z,1002.6
2017-11-12T03:05:28.653Z,1002.6
2017-11-12T03:06:30.264Z,1002.6
2017-11-12T03:07:31.960Z,1002.6
2017-11-12T03:08:33.575Z,1002.5
2017-11-12T03:09:35.183Z,1002.5
2017-11-12T03:10:36.896Z,1002.5
2017-11-12T03:11:38.512Z,1002.5
2017-11-12T03:12:40.129Z,1002.5
2017-11-12T03:13:41.810Z,1002.5
2017-11-12T03:14:43.434Z,1002.4
2017-11-12T03:15:45.089Z,1002.4
2017-11-12T03:16:46.702Z,1002.4
2017-11-12T03:17:48.357Z,1002.4
2017-11-12T03:18:50.069Z,1002.3
2017-11-12T03:19:51.684Z,1002.3
2017-11-12T03:20:53.307Z,1002.3
2017-11-12T03:21:54.965Z,1002.3
2017-11-12T03:22:56.584Z,1002.3
2017-11-12T03:23:58.200Z,1002.3
2017-11-12T03:24:59.867Z,1002.2
2017-11-12T03:26:01.489Z,1002.3
2017-11-12T03:27:03.184Z,1002.4
2017-11-12T03:28:04.853Z,1002.3
2017-11-12T03:29:06.467Z,1002.3
2017-11-12T03:30:08.136Z,1002.3
2017-11-12T03:31:09.823Z,1002.3
2017-11-12T03:32:11.444Z,1002.3
2017-11-12T03:33:13.049Z,1002.3
2017-11-12T03:34:14.723Z,1002.3
2017-11-12T03:35:16.428Z,1002.3
2017-11-12T03:36:18.073Z,1002.2
2017-11-12T03:37:19.686Z,1002.2
2017-11-12T03:38:21.302Z,1002.2
2017-11-12T03:39:22.910Z,1002.2
2017-11-12T03:40:24.521Z,1002.2
2017-11-12T03:41:26.149Z,1002.2
2017-11-12T03:42:27.791Z,1002.2
2017-11-12T03:43:29.396Z,1002.2
2017-11-12T03:44:31.092Z,1002.3
2017-11-12T03:45:32.714Z,1002.3
2017-11-12T03:46:34.331Z,1002.3
2017-11-12T03:47:35.938Z,1002.3
2017-11-12T03:48:37.615Z,1002.3
2017-11-12T03:49:39.228Z,1002.2
2017-11-12T03:50:40.846Z,1002.2
2017-11-12T03:51:42.486Z,1002.2
2017-11-12T03:52:44.066Z,1002.2
2017-11-12T03:53:45.684Z,1002.2
2017-11-12T03:54:47.388Z,1002.1
2017-11-12T03:55:49.054Z,1002.1
2017-11-12T03:56:50.669Z,1002.1
2017-11-12T03:57:52.365Z,1002.1
2017-11-12T03:58:54.040Z,1002.1
2017-11-12T03:59:55.733Z,1002.1
2017-11-12T04:00:57.394Z,1002.1
2017-11-12T04:01:59.073Z,1002.1
2017-11-12T04:03:00.748Z,1002.1
2017-11-12T04:04:02.402Z,1002.0
2017-11-12T04:05:04.010Z,1002.0
2017-11-12T04:06:05.622Z,1002.0
2017-11-12T04:07:07.236Z,1002.1
2017-11-12T04:08:08.850Z,1002.0
2017-11-12T04:09:10.473Z,1002.1
2017-11-12T04:10:12.082Z,1002.0
2017-11-12T04:11:13.718Z,1002.0
2017-11-12T04:12:15.301Z,1001.9
2017-11-12T04:13:16.924Z,1002.0
2017-11-12T04:14:18.536Z,1001.9
2017-11-12T04:15:20.213Z,1001.9
2017-11-12T04:16:21.835Z,1001.8
2017-11-12T04:17:23.477Z,1001.8
2017-11-12T04:18:25.096Z,1001.8
2017-11-12T04:19:26.706Z,1001.7
2017-11-12T04:20:28.320Z,1001.7
2017-11-12T04:21:29.941Z,1001.8
2017-11-12T04:22:31.553Z,1001.8
2017-11-12T04:23:33.242Z,1001.8
2017-11-12T04:24:34.901Z,1001.8
2017-11-12T04:25:36.514Z,1001.8
2017-11-12T04:26:38.126Z,1001.7
2017-11-12T04:27:39.819Z,1001.7
2017-11-12T04:28:41.489Z,1001.7
2017-11-12T04:29:43.100Z,1001.7
2017-11-12T04:30:44.781Z,1001.7
2017-11-12T04:31:46.399Z,1001.7
2017-11-12T04:32:48.022Z,1001.6
2017-11-12T04:33:49.633Z,1001.7
2017-11-12T04:34:51.267Z,1001.6
2017-11-12T04:35:52.895Z,1001.6
2017-11-12T04:36:54.507Z,1001.6
2017-11-12T04:37:56.166Z,1001.6
2017-11-12T04:38:57.801Z,1001.6
2017-11-12T04:39:59.465Z,1001.5
2017-11-12T04:41:01.060Z,1001.5
2017-11-12T04:42:02.714Z,1001.5
2017-11-12T04:43:04.373Z,1001.5
2017-11-12T04:44:06.035Z,1001.5
2017-11-12T04:45:07.643Z,1001.4
2017-11-12T04:46:09.259Z,1001.4
2017-11-12T04:47:10.866Z,1001.4
2017-11-12T04:48:12.478Z,1001.5
2017-11-12T04:49:14.092Z,1001.4
2017-11-12T04:50:15.775Z,1001.4
2017-11-12T04:51:17.462Z,1001.5
2017-11-12T04:52:19.078Z,1001.5
2017-11-12T04:53:20.695Z,1001.4
2017-11-12T04:54:22.379Z,1001.3
2017-11-12T04:55:24.003Z,1001.3
2017-11-12T04:56:25.617Z,1001.2
2017-11-12T04:57:27.288Z,1001.1
2017-11-12T04:58:28.894Z,1001.1
2017-11-12T04:59:30.566Z,1001.1
2017-11-12T05:00:32.197Z,1001.1
2017-11-12T05:01:33.894Z,1001.1
2017-11-12T05:02:35.501Z,1001.2
2017-11-12T05:03:37.150Z,1001.1
2017-11-12T05:04:38.757Z,1001.1
2017-11-12T05:05:40.407Z,1001.1
2017-11-12T05:06:42.063Z,1001.1
2017-11-12T05:07:43.722Z,1001.1
2017-11-12T05:08:45.340Z,1001.0
2017-11-12T05:09:46.998Z,1001.0
2017-11-12T05:10:48.615Z,1001.0
2017-11-12T05:11:50.294Z,1000.9
2017-11-12T05:12:51.902Z,1000.9
2017-11-12T05:13:53.522Z,1000.9
2017-11-12T05:14:55.188Z,1000.9
2017-11-12T05:15:56.838Z,1001.0
2017-11-12T05:16:58.507Z,1000.9
2017-11-12T05:18:00.133Z,1000.9
2017-11-12T05:19:01.812Z,1000.9
2017-11-12T05:20:03.429Z,1000.9
2017-11-12T05:21:05.039Z,1000.9
2017-11-12T05:22:06.717Z,1000.8
2017-11-12T05:23:08.341Z,1000.8
2017-11-12T05:24:09.983Z,1000.7
2017-11-12T05:25:11.614Z,1000.7
2017-11-12T05:26:13.231Z,1000.7
2017-11-12T05:27:14.908Z,1000.7
2017-11-12T05:28:16.510Z,1000.7
2017-11-12T05:29:18.213Z,1000.7
2017-11-12T05:30:19.865Z,1000.7
2017-11-12T05:31:21.508Z,1000.7
2017-11-12T05:32:23.198Z,1000.7
2017-11-12T05:33:24.805Z,1000.7
2017-11-12T05:34:26.443Z,1000.7
2017-11-12T05:35:28.067Z,1000.7
2017-11-12T05:36:29.730Z,1000.6
2017-11-12T05:37:31.403Z,1000.5
2017-11-12T05:38:33.073Z,1000.5
2017-11-12T05:39:34.761Z,1000.5
2017-11-12T05:40:36.374Z,1000.4
2017-11-12T05:41:38.033Z,1000.4
2017-11-12T05:42:39.704Z,1000.3
2017-11-12T05:43:41.316Z,1000.3
2017-11-12T05:44:42.929Z,1000.3
2017-11-12T05:45:44.613Z,1000.3
2017-11-12T05:46:46.236Z,1000.2
2017-11-12T05:47:47.908Z,1000.2
2017-11-12T05:48:49.515Z,1000.2
2017-11-12T05:49:51.126Z,1000.2
2017-11-12T05:50:52.755Z,1000.2
2017-11-12T05:51:54.409Z,1000.2
2017-11-12T05:52:56.030Z,1000.2
2017-11-12T05:53:57.710Z,1000.2
2017-11-12T05:54:59.345Z,1000.1
2017-11-12T05:56:01.031Z,1000.1
2017-11-12T05:57:02.696Z,1000.1
2017-11-12T05:58:04.371Z,1000.0
2017-11-12T05:59:05.992Z,1000.0
2017-11-12T06:00:07.662Z,1000.0
2017-11-12T06:01:09.273Z,1000.0
2017-11-12T06:02:10.887Z,1000.0
2017-11-12T06:03:12.503Z,1000.0
2017-11-12T06:04:14.113Z,1000.0
2017-11-12T06:05:15.728Z,999.9
2017-11-12T06:06:17.337Z,999.9
2017-11-12T06:07:18.950Z,999.9
2017-11-12T06:08:20.559Z,999.9
2017-11-12T06:09:22.219Z,999.9
2017-11-12T06:10:23.882Z,999.9
2017-11-12T06:11:25.493Z,999.8
2017-11-12T06:12:27.144Z,999.8
2017-11-12T06:13:28.847Z,999.8
2017-11-12T06:14:30.481Z,999.7
2017-11-12T06:15:32.085Z,999.8
2017-11-12T06:16:33.753Z,999.8
2017-11-12T06:17:35.367Z,999.7
2017-11-12T06:18:37.030Z,999.7
2017-11-12T06:19:38.644Z,999.7
2017-11-12T06:20:40.255Z,999.6
2017-11-12T06:21:41.882Z,999.6
2017-11-12T06:22:43.490Z,999.6
2017-11-12T06:23:45.169Z,999.5
2017-11-12T06:24:46.800Z,999.5
2017-11-12T06:25:48.407Z,999.5
2017-11-12T06:26:50.022Z,999.5
2017-11-12T06:27:51.630Z,999.5
2017-11-12T06:28:53.241Z,999.5
2017-11-12T06:29:54.859Z,999.5
2017-11-12T06:30:56.459Z,999.5
2017-11-12T06:31:58.069Z,999.5
2017-11-12T06:32:59.679Z,999.5
2017-11-12T06:34:01.292Z,999.4
2017-11-12T06:35:02.900Z,999.5
2017-11-12T06:36:04.511Z,999.5
2017-11-12T06:37:06.123Z,999.5
2017-11-12T06:38:07.735Z,999.5
2017-11-12T06:39:09.350Z,999.4
2017-11-12T06:40:10.959Z,999.4
2017-11-12T06:41:12.570Z,999.3
2017-11-12T06:42:14.181Z,999.3
2017-11-12T06:43:15.790Z,999.3
2017-11-12T06:44:17.400Z,999.2
2017-11-12T06:45:19.009Z,999.2
2017-11-12T06:46:20.628Z,999.1
2017-11-12T06:47:22.235Z,999.1
2017-11-12T06:48:23.846Z,999.1
2017-11-12T06:49:25.456Z,999.1
2017-11-12T06:50:27.065Z,999.0
2017-11-12T06:51:28.675Z,999.0
2017-11-12T06:52:30.285Z,999.0
2017-11-12T06:53:31.898Z,998.9
2017-11-12T06:54:33.507Z,998.9
2017-11-12T06:55:35.123Z,998.9
2017-11-12T06:56:36.730Z,998.9
2017-11-12T06:57:38.340Z,998.8
2017-11-12T06:58:39.953Z,998.8
2017-11-12T06:59:41.566Z,998.8
2017-11-12T07:00:43.175Z,998.8
2017-11-12T07:01:45.403Z,998.7
2017-11-12T07:02:47.010Z,998.7
2017-11-12T07:03:48.619Z,998.7
2017-11-12T07:04:50.230Z,998.7
2017-11-12T07:05:51.840Z,998.7
2017-11-12T07:06:53.450Z,998.6
2017-11-12T07:07:55.063Z,998.6
2017-11-12T07:08:56.677Z,998.5
2017-11-12T07:09:58.293Z,998.5
2017-11-12T07:11:00.569Z,998.5
2017-11-12T07:12:02.179Z,998.5
2017-11-12T07:13:03.793Z,998.4
2017-11-12T07:14:05.541Z,998.5
2017-11-12T07:15:07.145Z,998.4
2017-11-12T07:16:08.759Z,998.4
2017-11-12T07:17:10.369Z,998.4
2017-11-12T07:18:13.554Z,998.3
2017-11-12T07:19:15.106Z,998.3
2017-11-12T07:20:16.737Z,998.3
2017-11-12T07:21:18.346Z,998.3
2017-11-12T07:22:19.959Z,998.3
2017-11-12T07:23:21.575Z,998.2
2017-11-12T07:24:23.189Z,998.2
2017-11-12T07:25:24.820Z,998.2
2017-11-12T07:26:26.430Z,998.2
2017-11-12T07:27:28.040Z,998.2
2017-11-12T07:28:29.692Z,998.2
2017-11-12T07:29:31.267Z,998.1
2017-11-12T07:30:32.893Z,998.1
2017-11-12T07:31:34.498Z,998.1
2017-11-12T07:32:36.108Z,998.1
2017-11-12T07:33:37.722Z,998.1
2017-11-12T07:34:39.390Z,998.1
2017-11-12T07:35:41.002Z,998.1
2017-11-12T07:36:42.616Z,998.1
2017-11-12T07:37:44.241Z,998.1
2017-11-12T07:38:45.858Z,998.1
2017-11-12T07:39:47.468Z,998.0
2017-11-12T07:40:49.081Z,998.0
2017-11-12T07:41:50.691Z,998.0
2017-11-12T07:42:52.308Z,998.0
2017-11-12T07:43:53.919Z,998.1
2017-11-12T07:44:55.535Z,998.1
2017-11-12T07:45:57.153Z,998.1
2017-11-12T07:46:58.761Z,998.1
2017-11-12T07:48:00.375Z,998.1
2017-11-12T07:49:01.985Z,998.2
2017-11-12T07:50:03.630Z,998.2
2017-11-12T07:51:05.247Z,998.2
2017-11-12T07:52:06.855Z,998.2
2017-11-12T07:53:08.473Z,998.2
2017-11-12T07:54:10.083Z,998.2
2017-11-12T07:55:11.700Z,998.2
2017-11-12T07:56:13.309Z,998.1
2017-11-12T07:57:14.929Z,998.2
2017-11-12T07:58:16.534Z,998.2
2017-11-12T07:59:18.152Z,998.2
2017-11-12T08:00:19.766Z,998.2
2017-11-12T08:01:21.380Z,998.2
2017-11-12T08:02:23.017Z,998.2
2017-11-12T08:03:24.609Z,998.2
2017-11-12T08:04:26.224Z,998.2
2017-11-12T08:05:27.842Z,998.2
2017-11-12T08:06:29.482Z,998.2
2017-11-12T08:07:31.089Z,998.2
2017-11-12T08:08:32.724Z,998.1
2017-11-12T08:09:34.340Z,998.1
2017-11-12T08:10:36.027Z,998.0
2017-11-12T08:11:37.748Z,998.1
2017-11-12T08:12:39.487Z,998.1
2017-11-12T08:13:41.208Z,998.1
2017-11-12T08:14:42.832Z,998.1
2017-11-12T08:15:44.562Z,998.0
2017-11-12T08:16:46.178Z,998.0
2017-11-12T08:17:47.799Z,998.0
2017-11-12T08:18:49.442Z,998.0
2017-11-12T08:19:51.076Z,998.0
2017-11-12T08:20:52.696Z,998.0
2017-11-12T08:21:54.345Z,998.0
2017-11-12T08:22:55.956Z,997.9
2017-11-12T08:23:57.627Z,997.9
2017-11-12T08:24:59.319Z,997.9
2017-11-12T08:26:00.936Z,997.9
2017-11-12T08:27:02.551Z,997.9
2017-11-12T08:28:04.166Z,997.9
2017-11-12T08:29:05.799Z,997.9
2017-11-12T08:30:07.411Z,998.0
2017-11-12T08:31:09.060Z,998.1
2017-11-12T08:32:10.696Z,998.0
2017-11-12T08:33:12.417Z,998.1
2017-11-12T08:34:14.084Z,998.0
2017-11-12T08:35:15.932Z,998.0
2017-11-12T08:36:17.352Z,998.0
2017-11-12T08:37:18.967Z,998.0
2017-11-12T08:38:20.586Z,997.9
2017-11-12T08:39:22.208Z,997.9
2017-11-12T08:40:23.934Z,997.9
2017-11-12T08:41:25.543Z,997.9
2017-11-12T08:42:27.190Z,997.9
2017-11-12T08:43:28.796Z,997.8
2017-11-12T08:44:30.407Z,997.8
2017-11-12T08:45:32.025Z,997.7
2017-11-12T08:46:33.686Z,997.7
2017-11-12T08:47:35.340Z,997.7
2017-11-12T08:48:37.040Z,997.7
2017-11-12T08:49:38.678Z,997.7
2017-11-12T08:50:40.291Z,997.7
2017-11-12T08:51:41.964Z,997.7
2017-11-12T08:52:43.653Z,997.6
2017-11-12T08:53:45.273Z,997.7
2017-11-12T08:54:46.957Z,997.6
2017-11-12T08:55:48.664Z,997.5
2017-11-12T08:56:50.275Z,997.5
2017-11-12T08:57:51.973Z,997.5
2017-11-12T08:58:53.592Z,997.4
2017-11-12T08:59:55.231Z,997.5
2017-11-12T09:00:57.175Z,997.4
2017-11-12T09:01:58.872Z,997.4
2017-11-12T09:03:00.591Z,997.4
2017-11-12T09:04:02.253Z,997.4
2017-11-12T09:05:03.920Z,997.4
2017-11-12T09:06:05.657Z,997.5
2017-11-12T09:07:07.422Z,997.4
2017-11-12T09:08:09.128Z,997.4
2017-11-12T09:09:11.061Z,997.5
2017-11-12T09:10:12.728Z,997.4
2017-11-12T09:11:14.518Z,997.4
2017-11-12T09:12:16.248Z,997.4
2017-11-12T09:13:18.061Z,997.4
2017-11-12T09:14:19.780Z,997.3
2017-11-12T09:15:21.826Z,997.3
2017-11-12T09:16:23.777Z,997.3
2017-11-12T09:17:25.551Z,997.2
2017-11-12T09:18:27.182Z,997.1
2017-11-12T09:19:28.945Z,997.1
2017-11-12T09:20:30.729Z,997.1
2017-11-12T09:21:32.493Z,997.0
2017-11-12T09:22:34.483Z,997.0
2017-11-12T09:23:36.284Z,997.0
2017-11-12T09:24:38.263Z,997.0
2017-11-12T09:25:40.029Z,997.0
2017-11-12T09:26:41.712Z,997.0
2017-11-12T09:27:43.319Z,997.0
2017-11-12T09:28:45.012Z,997.0
2017-11-12T09:29:46.690Z,996.9
2017-11-12T09:30:48.297Z,996.9
2017-11-12T09:31:49.916Z,996.9
2017-11-12T09:32:51.605Z,996.9
2017-11-12T09:33:53.352Z,996.9
2017-11-12T09:34:55.056Z,996.9
2017-11-12T09:35:56.673Z,996.9
2017-11-12T09:36:58.286Z,996.8
2017-11-12T09:37:59.917Z,996.9
2017-11-12T09:39:01.576Z,996.8
2017-11-12T09:40:03.209Z,996.8
2017-11-12T09:41:04.845Z,996.7
2017-11-12T09:42:06.586Z,996.7
2017-11-12T09:43:08.422Z,996.7
2017-11-12T09:44:10.030Z,996.7
2017-11-12T09:45:11.719Z,996.7
2017-11-12T09:46:13.434Z,996.7
2017-11-12T09:47:15.089Z,996.7
2017-11-12T09:48:16.733Z,996.7
2017-11-12T09:49:18.324Z,996.7
2017-11-12T09:50:19.937Z,996.6
2017-11-12T09:51:21.572Z,996.6
2017-11-12T09:52:23.193Z,996.7
2017-11-12T09:53:24.820Z,996.6
2017-11-12T09:54:26.461Z,996.6
2017-11-12T09:55:28.077Z,996.6
2017-11-12T09:56:29.706Z,996.5
2017-11-12T09:57:31.318Z,996.5
2017-11-12T09:58:32.935Z,996.5
2017-11-12T09:59:34.750Z,996.5
2017-11-12T10:00:36.388Z,996.5
2017-11-12T10:01:38.002Z,996.5
2017-11-12T10:02:39.634Z,996.5
2017-11-12T10:03:41.233Z,996.5
2017-11-12T10:04:42.849Z,996.5
2017-11-12T10:05:44.461Z,996.5
2017-11-12T10:06:46.093Z,996.5
2017-11-12T10:07:47.729Z,996.5
2017-11-12T10:08:49.322Z,996.4
2017-11-12T10:09:50.939Z,996.4
2017-11-12T10:10:52.553Z,996.3
2017-11-12T10:11:54.169Z,996.3
2017-11-12T10:12:55.784Z,996.2
2017-11-12T10:13:57.399Z,996.1
2017-11-12T10:14:59.013Z,996.1
2017-11-12T10:16:00.632Z,996.1
2017-11-12T10:17:02.247Z,996.1
2017-11-12T10:18:03.862Z,996.0
2017-11-12T10:19:05.476Z,996.0
2017-11-12T10:20:07.088Z,995.9
2017-11-12T10:21:08.705Z,995.9
2017-11-12T10:22:10.319Z,995.9
2017-11-12T10:23:11.934Z,995.8
2017-11-12T10:24:13.550Z,995.8
2017-11-12T10:25:15.160Z,995.8
2017-11-12T10:26:16.795Z,995.7
2017-11-12T10:27:18.389Z,995.6
2017-11-12T10:28:20.039Z,995.6
2017-11-12T10:29:21.652Z,995.6
2017-11-12T10:30:23.269Z,995.5
2017-11-12T10:31:24.883Z,995.5
2017-11-12T10:32:26.495Z,995.5
2017-11-12T10:33:28.114Z,995.5
2017-11-12T10:34:29.727Z,995.5
2017-11-12T10:35:31.338Z,995.4
2017-11-12T10:36:32.951Z,995.5
2017-11-12T10:37:34.565Z,995.5
2017-11-12T10:38:36.178Z,995.5
2017-11-12T10:39:37.794Z,995.5
2017-11-12T10:40:39.405Z,995.5
2017-11-12T10:41:41.017Z,995.5
2017-11-12T10:42:42.630Z,995.5
2017-11-12T10:43:44.242Z,995.6
2017-11-12T10:44:45.855Z,995.6
2017-11-12T10:45:47.490Z,995.7
2017-11-12T10:46:49.081Z,995.7
2017-11-12T10:47:50.692Z,995.7
2017-11-12T10:48:52.300Z,995.8
2017-11-12T10:49:53.922Z,995.8
2017-11-12T10:50:55.534Z,995.8
2017-11-12T10:51:57.146Z,995.7
2017-11-12T10:52:58.762Z,995.7
2017-11-12T10:54:00.375Z,995.7
2017-11-12T10:55:01.983Z,995.6
2017-11-12T10:56:03.596Z,995.6
2017-11-12T10:57:05.206Z,995.6
2017-11-12T10:58:06.827Z,995.5
2017-11-12T10:59:08.433Z,995.5
2017-11-12T11:00:10.048Z,995.5
2017-11-12T11:01:11.661Z,995.4
2017-11-12T11:02:13.271Z,995.4
2017-11-12T11:03:14.883Z,995.4
2017-11-12T11:04:16.496Z,995.4
2017-11-12T11:05:18.111Z,995.4
2017-11-12T11:06:19.721Z,995.4
2017-11-12T11:07:21.338Z,995.3
2017-11-12T11:08:22.954Z,995.4
2017-11-12T11:09:24.581Z,995.4
2017-11-12T11:10:26.199Z,995.4
2017-11-12T11:11:27.817Z,995.5
2017-11-12T11:12:29.430Z,995.6
2017-11-12T11:13:31.046Z,995.6
2017-11-12T11:14:32.664Z,995.7
2017-11-12T11:15:34.278Z,995.6
2017-11-12T11:16:35.891Z,995.7
2017-11-12T11:17:37.505Z,995.7
2017-11-12T11:18:39.119Z,995.7
2017-11-12T11:19:40.734Z,995.7
2017-11-12T11:20:42.352Z,995.7
2017-11-12T11:21:43.967Z,995.6
2017-11-12T11:22:45.582Z,995.6
2017-11-12T11:23:47.193Z,995.6
2017-11-12T11:24:48.807Z,995.5
2017-11-12T11:25:50.424Z,995.6
2017-11-12T11:26:52.039Z,995.5
2017-11-12T11:27:53.653Z,995.4
2017-11-12T11:28:55.270Z,995.4
2017-11-12T11:29:56.889Z,995.4
2017-11-12T11:30:58.498Z,995.3
2017-11-12T11:32:00.112Z,995.2
2017-11-12T11:33:01.734Z,995.2
2017-11-12T11:34:03.343Z,995.2
2017-11-12T11:35:04.960Z,995.2
2017-11-12T11:36:06.576Z,995.2
2017-11-12T11:37:08.188Z,995.3
2017-11-12T11:38:09.802Z,995.2
2017-11-12T11:39:11.424Z,995.2
2017-11-12T11:40:13.032Z,995.2
2017-11-12T11:41:14.649Z,995.3
2017-11-12T11:42:16.261Z,995.2
2017-11-12T11:43:17.882Z,995.2
2017-11-12T11:44:19.497Z,995.2
2017-11-12T11:45:21.117Z,995.2
2017-11-12T11:46:22.731Z,995.1
2017-11-12T11:47:24.346Z,995.2
2017-11-12T11:48:25.963Z,995.2
2017-11-12T11:49:27.579Z,995.2
2017-11-12T11:50:29.198Z,995.1
2017-11-12T11:51:30.809Z,995.0
2017-11-12T11:52:32.432Z,995.0
2017-11-12T11:53:34.034Z,995.0
2017-11-12T11:54:35.650Z,995.1
2017-11-12T11:55:37.264Z,995.1
2017-11-12T11:56:38.881Z,995.1
2017-11-12T11:57:40.501Z,995.2
2017-11-12T11:58:42.107Z,995.2
2017-11-12T11:59:43.734Z,995.2
2017-11-12T12:00:45.347Z,995.2
2017-11-12T12:01:46.965Z,995.2
2017-11-12T12:02:48.578Z,995.2
2017-11-12T12:03:50.191Z,995.2
2017-11-12T12:04:51.810Z,995.3
2017-11-12T12:05:53.424Z,995.3
2017-11-12T12:06:55.036Z,995.3
2017-11-12T12:07:56.647Z,995.3
2017-11-12T12:08:58.264Z,995.3
2017-11-12T12:09:59.886Z,995.3
2017-11-12T12:11:01.508Z,995.2
2017-11-12T12:12:03.118Z,995.2
2017-11-12T12:13:04.729Z,995.2
2017-11-12T12:14:06.345Z,995.2
2017-11-12T12:15:07.965Z,995.2
2017-11-12T12:16:09.582Z,995.3
2017-11-12T12:17:11.196Z,995.4
2017-11-12T12:18:12.812Z,995.5
2017-11-12T12:19:14.430Z,995.6
2017-11-12T12:20:16.057Z,995.5
2017-11-12T12:21:17.674Z,995.6
2017-11-12T12:22:19.293Z,995.5
2017-11-12T12:23:20.907Z,995.4
2017-11-12T12:24:22.523Z,995.3
2017-11-12T12:25:24.136Z,995.2
2017-11-12T12:26:25.760Z,995.3
2017-11-12T12:27:27.376Z,995.3
2017-11-12T12:28:28.990Z,995.6
2017-11-12T12:29:30.601Z,995.9
2017-11-12T12:30:32.225Z,996.1
2017-11-12T12:31:33.842Z,996.2
2017-11-12T12:32:35.456Z,996.0
2017-11-12T12:33:37.074Z,995.8
2017-11-12T12:34:38.688Z,995.6
2017-11-12T12:35:40.294Z,995.3
2017-11-12T12:36:41.923Z,995.1
2017-11-12T12:37:43.539Z,995.1
2017-11-12T12:38:45.154Z,995.0
2017-11-12T12:39:46.767Z,995.1
2017-11-12T12:40:48.387Z,995.7
2017-11-12T12:41:50.002Z,995.6
2017-11-12T12:42:51.623Z,995.6
2017-11-12T12:43:53.234Z,995.4
2017-11-12T12:44:54.852Z,995.9
2017-11-12T12:45:56.479Z,995.5
2017-11-12T12:46:58.081Z,995.6
2017-11-12T12:47:59.697Z,995.2
2017-11-12T12:49:01.309Z,995.1
2017-11-12T12:50:02.924Z,995.0
2017-11-12T12:51:04.534Z,995.0
2017-11-12T12:52:06.150Z,995.0
2017-11-12T12:53:07.764Z,994.9
2017-11-12T12:54:09.379Z,995.0
2017-11-12T12:55:10.997Z,995.0
2017-11-12T12:56:12.609Z,994.9
2017-11-12T12:57:14.221Z,995.0
2017-11-12T12:58:15.847Z,995.1
2017-11-12T12:59:17.634Z,995.0
2017-11-12T13:00:19.253Z,995.1
2017-11-12T13:01:20.868Z,995.1
2017-11-12T13:02:22.483Z,995.0